sensor_id;sensor_type;location;lat;lon;timestamp;pressure;altitude;pressure_sealevel;temperature;humidity
13050;BME280;6591;51.446;5.404;2023-04-01T00:01:12;98856.09;;;16.41;59.96
13050;BME280;6591;51.446;5.404;2023-04-01T00:03:44;98857.78;;;16.42;59.76
13050;BME280;6591;51.446;5.404;2023-04-01T00:06:17;98863.28;;;16.40;60.05
13050;BME280;6591;51.446;5.404;2023-04-01T00:08:45;98857.78;;;16.42;60.20
13050;BME280;6591;51.446;5.404;2023-04-01T00:11:14;98867.66;;;16.41;59.78
13050;BME280;6591;51.446;5.404;2023-04-01T00:13:42;98857.78;;;16.42;59.85
13050;BME280;6591;51.446;5.404;2023-04-01T00:16:09;98859.75;;;16.40;59.83
13050;BME280;6591;51.446;5.404;2023-04-01T00:18:48;98861.59;;;16.39;59.96
13050;BME280;6591;51.446;5.404;2023-04-01T00:21:18;98861.78;;;16.38;59.75
13050;BME280;6591;51.446;5.404;2023-04-01T00:23:46;98871.66;;;16.37;59.99
13050;BME280;6591;51.446;5.404;2023-04-01T00:26:13;98870.81;;;16.37;59.93
13050;BME280;6591;51.446;5.404;2023-04-01T00:28:42;98869.81;;;16.38;60.15
13050;BME280;6591;51.446;5.404;2023-04-01T00:31:10;98865.44;;;16.37;60.17
13050;BME280;6591;51.446;5.404;2023-04-01T00:33:39;98884.19;;;16.37;59.85
13050;BME280;6591;51.446;5.404;2023-04-01T00:36:17;98878.13;;;16.35;59.98
13050;BME280;6591;51.446;5.404;2023-04-01T00:38:45;98872.50;;;16.38;60.14
13050;BME280;6591;51.446;5.404;2023-04-01T00:41:14;98875.16;;;16.38;60.49
13050;BME280;6591;51.446;5.404;2023-04-01T00:43:47;98881.66;;;16.35;60.19
13050;BME280;6591;51.446;5.404;2023-04-01T00:46:14;98894.22;;;16.35;60.12
13050;BME280;6591;51.446;5.404;2023-04-01T00:48:48;98890.03;;;16.32;60.04
13050;BME280;6591;51.446;5.404;2023-04-01T00:51:25;98888.34;;;16.31;60.09
13050;BME280;6591;51.446;5.404;2023-04-01T00:53:58;98893.84;;;16.30;59.98
13050;BME280;6591;51.446;5.404;2023-04-01T00:56:35;98893.97;;;16.28;60.05
13050;BME280;6591;51.446;5.404;2023-04-01T00:59:15;98894.81;;;16.29;60.27
13050;BME280;6591;51.446;5.404;2023-04-01T01:01:44;98903.41;;;16.32;60.44
13050;BME280;6591;51.446;5.404;2023-04-01T01:04:31;98905.53;;;16.29;60.30
13050;BME280;6591;51.446;5.404;2023-04-01T01:10:19;98900.78;;;16.23;60.43
13050;BME280;6591;51.446;5.404;2023-04-01T01:13:10;98906.31;;;16.21;60.38
13050;BME280;6591;51.446;5.404;2023-04-01T01:18:40;98909.53;;;16.25;60.34
13050;BME280;6591;51.446;5.404;2023-04-01T01:24:50;98908.53;;;16.26;60.58
13050;BME280;6591;51.446;5.404;2023-04-01T01:27:21;98909.06;;;16.29;60.75
13050;BME280;6591;51.446;5.404;2023-04-01T01:33:24;98904.16;;;16.25;60.76
13050;BME280;6591;51.446;5.404;2023-04-01T01:35:56;98907.38;;;16.28;60.43
13050;BME280;6591;51.446;5.404;2023-04-01T01:38:31;98919.78;;;16.29;60.37
13050;BME280;6591;51.446;5.404;2023-04-01T01:41:06;98922.44;;;16.29;60.48
13050;BME280;6591;51.446;5.404;2023-04-01T01:43:40;98916.09;;;16.30;60.19
13050;BME280;6591;51.446;5.404;2023-04-01T01:46:19;98924.28;;;16.29;60.28
13050;BME280;6591;51.446;5.404;2023-04-01T01:48:49;98922.31;;;16.31;60.63
13050;BME280;6591;51.446;5.404;2023-04-01T01:51:20;98929.34;;;16.32;60.69
13050;BME280;6591;51.446;5.404;2023-04-01T01:53:49;98928.38;;;16.33;60.36
13050;BME280;6591;51.446;5.404;2023-04-01T01:56:22;98935.56;;;16.32;60.25
13050;BME280;6591;51.446;5.404;2023-04-01T01:59:06;98939.22;;;16.31;60.57
13050;BME280;6591;51.446;5.404;2023-04-01T02:01:39;98934.00;;;16.30;60.44
13050;BME280;6591;51.446;5.404;2023-04-01T02:04:13;98937.38;;;16.32;60.63
13050;BME280;6591;51.446;5.404;2023-04-01T02:06:53;98940.22;;;16.30;60.41
13050;BME280;6591;51.446;5.404;2023-04-01T02:09:22;98939.22;;;16.31;60.59
13050;BME280;6591;51.446;5.404;2023-04-01T02:11:59;98943.88;;;16.29;60.47
13050;BME280;6591;51.446;5.404;2023-04-01T02:15:05;98943.34;;;16.26;60.76
13050;BME280;6591;51.446;5.404;2023-04-01T02:17:34;98951.25;;;16.27;60.45
13050;BME280;6591;51.446;5.404;2023-04-01T02:20:20;98951.38;;;16.26;60.61
13050;BME280;6591;51.446;5.404;2023-04-01T02:22:56;98955.91;;;16.25;60.54
13050;BME280;6591;51.446;5.404;2023-04-01T02:25:33;98951.38;;;16.26;60.25
13050;BME280;6591;51.446;5.404;2023-04-01T02:28:05;98950.53;;;16.25;60.53
13050;BME280;6591;51.446;5.404;2023-04-01T02:30:36;98951.38;;;16.26;60.65
13050;BME280;6591;51.446;5.404;2023-04-01T02:33:05;98955.75;;;16.27;60.31
13050;BME280;6591;51.446;5.404;2023-04-01T02:35:35;98951.53;;;16.24;60.45
13050;BME280;6591;51.446;5.404;2023-04-01T02:38:05;98957.72;;;16.25;60.26
13050;BME280;6591;51.446;5.404;2023-04-01T02:41:03;98960.16;;;16.18;60.46
13050;BME280;6591;51.446;5.404;2023-04-01T02:43:31;98955.38;;;16.22;60.59
13050;BME280;6591;51.446;5.404;2023-04-01T02:45:58;98966.75;;;16.24;60.61
13050;BME280;6591;51.446;5.404;2023-04-01T02:48:25;98961.41;;;16.24;60.26
13050;BME280;6591;51.446;5.404;2023-04-01T02:50:53;98961.56;;;16.22;60.26
13050;BME280;6591;51.446;5.404;2023-04-01T02:53:20;98964.38;;;16.21;60.30
13050;BME280;6591;51.446;5.404;2023-04-01T02:55:47;98969.03;;;16.19;60.34
13050;BME280;6591;51.446;5.404;2023-04-01T02:58:17;98966.69;;;16.16;60.57
13050;BME280;6591;51.446;5.404;2023-04-01T03:00:45;98971.19;;;16.15;60.42
13050;BME280;6591;51.446;5.404;2023-04-01T03:03:12;98965.13;;;16.13;60.19
13050;BME280;6591;51.446;5.404;2023-04-01T03:05:40;98967.13;;;16.11;60.43
13050;BME280;6591;51.446;5.404;2023-04-01T03:08:07;98968.97;;;16.10;60.22
13050;BME280;6591;51.446;5.404;2023-04-01T03:10:34;98972.50;;;16.11;60.44
13050;BME280;6591;51.446;5.404;2023-04-01T03:13:03;98978.69;;;16.12;60.38
13050;BME280;6591;51.446;5.404;2023-04-01T03:15:30;98985.72;;;16.13;60.56
13050;BME280;6591;51.446;5.404;2023-04-01T03:17:57;98985.72;;;16.13;60.54
13050;BME280;6591;51.446;5.404;2023-04-01T03:20:25;98984.88;;;16.12;60.61
13050;BME280;6591;51.446;5.404;2023-04-01T03:22:52;98988.56;;;16.11;60.54
13050;BME280;6591;51.446;5.404;2023-04-01T03:25:19;98990.22;;;16.12;60.62
13050;BME280;6591;51.446;5.404;2023-04-01T03:27:46;99000.13;;;16.12;60.68
13050;BME280;6591;51.446;5.404;2023-04-01T03:30:13;98985.03;;;16.10;60.37
13050;BME280;6591;51.446;5.404;2023-04-01T03:32:48;98990.22;;;16.12;60.50
13050;BME280;6591;51.446;5.404;2023-04-01T03:35:15;99005.47;;;16.12;60.46
13050;BME280;6591;51.446;5.404;2023-04-01T03:37:43;98996.72;;;16.09;60.63
13050;BME280;6591;51.446;5.404;2023-04-01T03:40:10;98996.72;;;16.09;60.35
13050;BME280;6591;51.446;5.404;2023-04-01T03:42:38;99003.06;;;16.08;60.44
13050;BME280;6591;51.446;5.404;2023-04-01T03:45:06;98994.38;;;16.06;60.60
13050;BME280;6591;51.446;5.404;2023-04-01T03:47:33;99000.41;;;16.08;60.49
13050;BME280;6591;51.446;5.404;2023-04-01T03:50:00;99004.06;;;16.07;60.47
13050;BME280;6591;51.446;5.404;2023-04-01T03:52:27;99005.88;;;16.07;60.92
13050;BME280;6591;51.446;5.404;2023-04-01T03:54:54;99005.06;;;16.06;60.72
13050;BME280;6591;51.446;5.404;2023-04-01T03:57:22;99001.56;;;16.06;60.71
13050;BME280;6591;51.446;5.404;2023-04-01T03:59:49;99010.44;;;16.06;60.48
13050;BME280;6591;51.446;5.404;2023-04-01T04:02:17;99011.41;;;16.05;60.78
13050;BME280;6591;51.446;5.404;2023-04-01T04:04:45;99014.09;;;16.05;60.69
13050;BME280;6591;51.446;5.404;2023-04-01T04:07:15;99014.09;;;16.05;60.66
13050;BME280;6591;51.446;5.404;2023-04-01T04:10:05;99016.78;;;16.05;60.75
13050;BME280;6591;51.446;5.404;2023-04-01T04:12:33;99023.13;;;16.04;60.63
13050;BME280;6591;51.446;5.404;2023-04-01T04:15:00;99015.94;;;16.05;60.43
13050;BME280;6591;51.446;5.404;2023-04-01T04:17:30;99022.97;;;16.06;60.73
13050;BME280;6591;51.446;5.404;2023-04-01T04:19:58;99022.81;;;16.07;60.50
13050;BME280;6591;51.446;5.404;2023-04-01T04:22:26;99032.97;;;16.04;60.59
13050;BME280;6591;51.446;5.404;2023-04-01T04:24:53;99028.47;;;16.04;60.51
13050;BME280;6591;51.446;5.404;2023-04-01T04:27:21;99033.13;;;16.02;60.49
13050;BME280;6591;51.446;5.404;2023-04-01T04:29:57;99027.09;;;16.00;60.65
13050;BME280;6591;51.446;5.404;2023-04-01T04:32:24;99031.72;;;15.98;60.58
13050;BME280;6591;51.446;5.404;2023-04-01T04:34:52;99035.41;;;15.97;60.29
13050;BME280;6591;51.446;5.404;2023-04-01T04:37:19;99037.41;;;15.95;60.51
13050;BME280;6591;51.446;5.404;2023-04-01T04:39:46;99045.44;;;15.95;60.57
13050;BME280;6591;51.446;5.404;2023-04-01T04:42:13;99040.34;;;15.92;60.39
13050;BME280;6591;51.446;5.404;2023-04-01T04:44:40;99038.66;;;15.91;60.54
13050;BME280;6591;51.446;5.404;2023-04-01T04:47:08;99061.09;;;15.90;60.72
13050;BME280;6591;51.446;5.404;2023-04-01T04:49:35;99060.06;;;15.91;60.61
13050;BME280;6591;51.446;5.404;2023-04-01T04:52:07;99060.91;;;15.92;60.56
13050;BME280;6591;51.446;5.404;2023-04-01T04:54:34;99073.47;;;15.91;60.59
13050;BME280;6591;51.446;5.404;2023-04-01T04:57:03;99067.13;;;15.92;60.55
13050;BME280;6591;51.446;5.404;2023-04-01T04:59:36;99069.97;;;15.91;60.36
13050;BME280;6591;51.446;5.404;2023-04-01T05:02:13;99078.28;;;15.88;60.50
13050;BME280;6591;51.446;5.404;2023-04-01T05:04:41;99077.28;;;15.89;60.60
13050;BME280;6591;51.446;5.404;2023-04-01T05:07:10;99075.72;;;15.86;60.68
13050;BME280;6591;51.446;5.404;2023-04-01T05:09:38;99080.28;;;15.86;60.42
13050;BME280;6591;51.446;5.404;2023-04-01T05:12:05;99097.44;;;15.83;60.62
13050;BME280;6591;51.446;5.404;2023-04-01T05:14:53;99094.06;;;15.81;60.68
13050;BME280;6591;51.446;5.404;2023-04-01T05:17:20;99089.56;;;15.82;60.51
13050;BME280;6591;51.446;5.404;2023-04-01T05:19:47;99095.09;;;15.80;60.53
13050;BME280;6591;51.446;5.404;2023-04-01T05:22:14;99096.06;;;15.79;60.76
13050;BME280;6591;51.446;5.404;2023-04-01T05:24:42;99103.13;;;15.80;60.71
13050;BME280;6591;51.446;5.404;2023-04-01T05:27:11;99101.41;;;15.79;60.60
13050;BME280;6591;51.446;5.404;2023-04-01T05:29:39;99105.91;;;15.79;60.63
13050;BME280;6591;51.446;5.404;2023-04-01T05:32:12;99109.44;;;15.79;60.45
13050;BME280;6591;51.446;5.404;2023-04-01T05:34:39;99110.44;;;15.78;60.36
13050;BME280;6591;51.446;5.404;2023-04-01T05:37:07;99118.31;;;15.80;60.85
13050;BME280;6591;51.446;5.404;2023-04-01T05:39:38;99117.59;;;15.78;60.26
13050;BME280;6591;51.446;5.404;2023-04-01T05:42:07;99123.81;;;15.78;60.69
13050;BME280;6591;51.446;5.404;2023-04-01T05:44:35;99134.50;;;15.78;60.70
13050;BME280;6591;51.446;5.404;2023-04-01T05:47:22;99140.72;;;15.79;60.38
13050;BME280;6591;51.446;5.404;2023-04-01T05:49:50;99136.22;;;15.79;60.33
13050;BME280;6591;51.446;5.404;2023-04-01T05:52:17;99138.88;;;15.79;60.96
13050;BME280;6591;51.446;5.404;2023-04-01T05:54:44;99150.44;;;15.80;60.25
13050;BME280;6591;51.446;5.404;2023-04-01T05:57:11;99147.91;;;15.78;60.60
13050;BME280;6591;51.446;5.404;2023-04-01T05:59:38;99152.28;;;15.79;60.54
13050;BME280;6591;51.446;5.404;2023-04-01T06:02:06;99156.78;;;15.79;60.65
13050;BME280;6591;51.446;5.404;2023-04-01T06:04:39;99158.59;;;15.78;60.46
13050;BME280;6591;51.446;5.404;2023-04-01T06:07:13;99163.09;;;15.78;60.58
13050;BME280;6591;51.446;5.404;2023-04-01T06:09:41;99169.44;;;15.77;60.55
13050;BME280;6591;51.446;5.404;2023-04-01T06:12:21;99177.47;;;15.77;60.70
13050;BME280;6591;51.446;5.404;2023-04-01T06:15:13;99177.78;;;15.74;60.71
13050;BME280;6591;51.446;5.404;2023-04-01T06:18:28;99183.97;;;15.74;60.84
13050;BME280;6591;51.446;5.404;2023-04-01T06:21:12;99189.03;;;15.77;60.92
13050;BME280;6591;51.446;5.404;2023-04-01T06:24:47;99194.69;;;15.74;60.84
13050;BME280;6591;51.446;5.404;2023-04-01T06:50:02;99214.66;;;15.80;61.43
13050;BME280;6591;51.446;5.404;2023-04-01T06:56:21;99232.69;;;15.87;61.63
13050;BME280;6591;51.446;5.404;2023-04-01T06:59:19;99233.09;;;15.92;61.51
13050;BME280;6591;51.446;5.404;2023-04-01T07:04:49;99244.63;;;16.02;61.29
13050;BME280;6591;51.446;5.404;2023-04-01T07:07:29;99243.38;;;16.06;61.44
13050;BME280;6591;51.446;5.404;2023-04-01T07:10:10;99250.13;;;16.10;61.17
13050;BME280;6591;51.446;5.404;2023-04-01T07:12:56;99244.78;;;16.10;60.97
13050;BME280;6591;51.446;5.404;2023-04-01T07:15:58;99247.16;;;16.14;61.34
13050;BME280;6591;51.446;5.404;2023-04-01T07:18:43;99254.75;;;16.18;61.24
13050;BME280;6591;51.446;5.404;2023-04-01T07:21:32;99259.53;;;16.24;61.41
13050;BME280;6591;51.446;5.404;2023-04-01T07:24:39;99264.75;;;16.26;61.06
13050;BME280;6591;51.446;5.404;2023-04-01T07:27:12;99269.53;;;16.32;61.46
13050;BME280;6591;51.446;5.404;2023-04-01T07:29:41;99283.47;;;16.35;61.43
13050;BME280;6591;51.446;5.404;2023-04-01T07:32:44;99283.47;;;16.35;61.52
13050;BME280;6591;51.446;5.404;2023-04-01T07:35:35;99282.03;;;16.41;61.62
13050;BME280;6591;51.446;5.404;2023-04-01T07:38:27;99285.13;;;16.46;61.80
13050;BME280;6591;51.446;5.404;2023-04-01T07:41:38;99286.38;;;16.51;61.69
13050;BME280;6591;51.446;5.404;2023-04-01T07:47:55;99294.28;;;16.63;61.43
13050;BME280;6591;51.446;5.404;2023-04-01T07:59:25;99306.34;;;16.76;61.39
13050;BME280;6591;51.446;5.404;2023-04-01T08:02:20;99321.00;;;16.82;60.83
13050;BME280;6591;51.446;5.404;2023-04-01T08:15:11;99346.69;;;16.84;60.55
13050;BME280;6591;51.446;5.404;2023-04-01T08:20:59;99352.66;;;16.78;60.69
13050;BME280;6591;51.446;5.404;2023-04-01T08:23:55;99352.66;;;16.78;61.13
13050;BME280;6591;51.446;5.404;2023-04-01T08:26:45;99346.84;;;16.83;61.50
13050;BME280;6591;51.446;5.404;2023-04-01T08:29:38;99357.97;;;16.88;61.39
13050;BME280;6591;51.446;5.404;2023-04-01T08:32:17;99359.94;;;16.96;61.48
13050;BME280;6591;51.446;5.404;2023-04-01T08:35:14;99357.47;;;17.02;61.62
13050;BME280;6591;51.446;5.404;2023-04-01T08:37:43;99357.03;;;17.16;61.84
13050;BME280;6591;51.446;5.404;2023-04-01T08:40:51;99365.88;;;17.26;62.01
13050;BME280;6591;51.446;5.404;2023-04-01T08:46:43;99372.06;;;17.54;61.72
13050;BME280;6591;51.446;5.404;2023-04-01T08:49:31;99375.56;;;17.64;60.99
13050;BME280;6591;51.446;5.404;2023-04-01T08:52:46;99379.34;;;17.71;60.87
13050;BME280;6591;51.446;5.404;2023-04-01T08:55:43;99391.19;;;17.78;60.45
13050;BME280;6591;51.446;5.404;2023-04-01T08:58:26;99396.34;;;17.90;60.41
13050;BME280;6591;51.446;5.404;2023-04-01T09:01:44;99407.47;;;17.95;59.73
13050;BME280;6591;51.446;5.404;2023-04-01T09:07:49;99409.09;;;18.05;59.37
13050;BME280;6591;51.446;5.404;2023-04-01T09:10:56;99411.91;;;18.04;59.55
13050;BME280;6591;51.446;5.404;2023-04-01T09:22:48;99426.66;;;18.00;58.64
13050;BME280;6591;51.446;5.404;2023-04-01T09:28:28;99431.53;;;17.87;58.86
13050;BME280;6591;51.446;5.404;2023-04-01T09:37:56;99444.38;;;17.65;59.26
13050;BME280;6591;51.446;5.404;2023-04-01T09:40:56;99440.69;;;17.66;59.77
13050;BME280;6591;51.446;5.404;2023-04-01T09:44:02;99449.84;;;17.73;59.81
13050;BME280;6591;51.446;5.404;2023-04-01T09:47:00;99447.84;;;17.75;60.01
13050;BME280;6591;51.446;5.404;2023-04-01T09:49:47;99451.09;;;17.79;59.80
13050;BME280;6591;51.446;5.404;2023-04-01T09:52:56;99458.44;;;17.77;59.21
13050;BME280;6591;51.446;5.404;2023-04-01T10:23:31;99487.44;;;17.73;59.18
13050;BME280;6591;51.446;5.404;2023-04-01T10:29:23;99501.94;;;17.81;59.29
13050;BME280;6591;51.446;5.404;2023-04-01T10:32:48;99506.25;;;17.73;58.37
13050;BME280;6591;51.446;5.404;2023-04-01T10:38:55;99504.41;;;17.64;57.92
13050;BME280;6591;51.446;5.404;2023-04-01T10:48:23;99511.63;;;17.54;58.94
13050;BME280;6591;51.446;5.404;2023-04-01T11:16:36;99533.06;;;17.27;58.60
13050;BME280;6591;51.446;5.404;2023-04-01T11:31:29;99539.97;;;17.20;59.28
13050;BME280;6591;51.446;5.404;2023-04-01T11:38:13;99551.56;;;17.20;59.31
13050;BME280;6591;51.446;5.404;2023-04-01T11:44:25;99558.91;;;17.18;59.42
13050;BME280;6591;51.446;5.404;2023-04-01T11:53:41;99570.19;;;17.12;59.52
13050;BME280;6591;51.446;5.404;2023-04-01T11:56:39;99570.78;;;17.16;59.64
13050;BME280;6591;51.446;5.404;2023-04-01T12:02:18;99577.66;;;17.18;59.39
13050;BME280;6591;51.446;5.404;2023-04-01T12:05:10;99582.47;;;17.24;59.84
13050;BME280;6591;51.446;5.404;2023-04-01T12:08:04;99589.41;;;17.27;60.00
13050;BME280;6591;51.446;5.404;2023-04-01T12:16:26;99593.63;;;17.29;59.63
13050;BME280;6591;51.446;5.404;2023-04-01T12:22:16;99602.25;;;17.23;59.45
13050;BME280;6591;51.446;5.404;2023-04-01T12:28:20;99612.69;;;17.17;59.82
13050;BME280;6591;51.446;5.404;2023-04-01T12:31:14;99615.78;;;17.12;60.21
13050;BME280;6591;51.446;5.404;2023-04-01T12:45:33;99632.47;;;17.16;60.14
13050;BME280;6591;51.446;5.404;2023-04-01T12:48:50;99642.78;;;17.11;60.22
13050;BME280;6591;51.446;5.404;2023-04-01T12:57:55;99644.44;;;17.12;60.45
13050;BME280;6591;51.446;5.404;2023-04-01T13:07:36;99653.09;;;17.15;60.30
13050;BME280;6591;51.446;5.404;2023-04-01T13:13:19;99649.25;;;17.18;59.94
13050;BME280;6591;51.446;5.404;2023-04-01T13:16:14;99652.09;;;17.16;59.89
13050;BME280;6591;51.446;5.404;2023-04-01T13:19:23;99664.94;;;17.13;60.78
13050;BME280;6591;51.446;5.404;2023-04-01T13:22:39;99667.91;;;17.10;60.48
13050;BME280;6591;51.446;5.404;2023-04-01T13:25:46;99664.94;;;17.13;60.65
13050;BME280;6591;51.446;5.404;2023-04-01T13:34:51;99680.03;;;17.14;61.01
13050;BME280;6591;51.446;5.404;2023-04-01T13:41:01;99695.84;;;17.17;60.82
13050;BME280;6591;51.446;5.404;2023-04-01T13:43:45;99688.50;;;17.19;60.37
13050;BME280;6591;51.446;5.404;2023-04-01T13:46:59;99691.63;;;17.14;60.05
13050;BME280;6591;51.446;5.404;2023-04-01T13:55:34;99704.47;;;17.11;60.29
13050;BME280;6591;51.446;5.404;2023-04-01T14:13:23;99717.47;;;17.06;60.44
13050;BME280;6591;51.446;5.404;2023-04-01T14:19:39;99724.34;;;16.99;60.38
13050;BME280;6591;51.446;5.404;2023-04-01T14:35:03;99740.69;;;16.86;60.56
13050;BME280;6591;51.446;5.404;2023-04-01T14:38:04;99740.97;;;16.83;60.97
13050;BME280;6591;51.446;5.404;2023-04-01T14:50:03;99752.63;;;16.72;60.62
13050;BME280;6591;51.446;5.404;2023-04-01T14:52:38;99758.00;;;16.72;60.52
13050;BME280;6591;51.446;5.404;2023-04-01T14:55:30;99757.28;;;16.70;60.75
13050;BME280;6591;51.446;5.404;2023-04-01T14:58:15;99754.59;;;16.70;60.79
13050;BME280;6591;51.446;5.404;2023-04-01T15:12:33;99778.28;;;16.65;60.87
13050;BME280;6591;51.446;5.404;2023-04-01T15:15:29;99778.16;;;16.67;60.75
13050;BME280;6591;51.446;5.404;2023-04-01T15:18:56;99792.41;;;16.67;60.93
13050;BME280;6591;51.446;5.404;2023-04-01T15:24:14;99796.50;;;16.71;61.20
13050;BME280;6591;51.446;5.404;2023-04-01T15:27:11;99795.53;;;16.72;61.06
13050;BME280;6591;51.446;5.404;2023-04-01T15:30:13;99800.78;;;16.74;61.53
13050;BME280;6591;51.446;5.404;2023-04-01T15:34:07;99808.66;;;16.75;61.31
13050;BME280;6591;51.446;5.404;2023-04-01T15:39:58;99808.66;;;16.75;61.00
13050;BME280;6591;51.446;5.404;2023-04-01T15:48:24;99819.53;;;16.74;60.86
13050;BME280;6591;51.446;5.404;2023-04-01T16:18:36;99841.91;;;16.63;60.85
13050;BME280;6591;51.446;5.404;2023-04-01T16:21:19;99845.28;;;16.65;60.76
13050;BME280;6591;51.446;5.404;2023-04-01T16:23:53;99851.38;;;16.67;60.81
13050;BME280;6591;51.446;5.404;2023-04-01T16:26:53;99847.97;;;16.65;61.12
13050;BME280;6591;51.446;5.404;2023-04-01T16:32:50;99850.81;;;16.64;61.01
13050;BME280;6591;51.446;5.404;2023-04-01T16:35:47;99845.56;;;16.62;60.94
13050;BME280;6591;51.446;5.404;2023-04-01T16:38:36;99859.69;;;16.64;60.86
13050;BME280;6591;51.446;5.404;2023-04-01T16:41:07;99851.38;;;16.67;60.67
13050;BME280;6591;51.446;5.404;2023-04-01T16:46:28;99852.22;;;16.68;60.69
13050;BME280;6591;51.446;5.404;2023-04-01T16:54:52;99851.91;;;16.61;60.94
13050;BME280;6591;51.446;5.404;2023-04-01T16:58:20;99863.13;;;16.55;60.69
13050;BME280;6591;51.446;5.404;2023-04-01T17:01:00;99879.84;;;16.59;61.02
13050;BME280;6591;51.446;5.404;2023-04-01T17:03:38;99889.56;;;16.60;61.06
13050;BME280;6591;51.446;5.404;2023-04-01T17:10:24;99894.56;;;16.53;61.41
13050;BME280;6591;51.446;5.404;2023-04-01T17:13:29;99910.25;;;16.58;61.22
13050;BME280;6591;51.446;5.404;2023-04-01T17:19:14;99905.03;;;16.56;61.37
13050;BME280;6591;51.446;5.404;2023-04-01T17:22:02;99909.41;;;16.57;61.03
13050;BME280;6591;51.446;5.404;2023-04-01T17:28:47;99923.84;;;16.45;61.17
13050;BME280;6591;51.446;5.404;2023-04-01T17:37:28;99945.28;;;16.45;61.67
13050;BME280;6591;51.446;5.404;2023-04-01T17:53:11;99968.38;;;16.57;62.15
13050;BME280;6591;51.446;5.404;2023-04-01T17:56:04;99975.94;;;16.63;61.73
13050;BME280;6591;51.446;5.404;2023-04-01T17:58:46;99978.34;;;16.66;61.52
13050;BME280;6591;51.446;5.404;2023-04-01T18:01:21;99982.47;;;16.70;61.59
13050;BME280;6591;51.446;5.404;2023-04-01T18:04:31;99988.69;;;16.71;61.74
13050;BME280;6591;51.446;5.404;2023-04-01T18:07:22;100003.66;;;16.73;61.65
13050;BME280;6591;51.446;5.404;2023-04-01T18:21:50;100032.88;;;16.76;61.65
13050;BME280;6591;51.446;5.404;2023-04-01T18:27:43;100042.38;;;16.80;61.74
13050;BME280;6591;51.446;5.404;2023-04-01T18:30:29;100054.94;;;16.80;61.82
13050;BME280;6591;51.446;5.404;2023-04-01T18:36:18;100072.88;;;16.79;61.64
13050;BME280;6591;51.446;5.404;2023-04-01T18:38:55;100075.53;;;16.79;61.51
13050;BME280;6591;51.446;5.404;2023-04-01T18:42:38;100074.81;;;16.77;61.48
13050;BME280;6591;51.446;5.404;2023-04-01T18:44:57;100085.53;;;16.77;62.06
13050;BME280;6591;51.446;5.404;2023-04-01T18:47:59;100088.22;;;16.77;61.48
13050;BME280;6591;51.446;5.404;2023-04-01T18:50:38;100096.25;;;16.77;61.19
13050;BME280;6591;51.446;5.404;2023-04-01T18:53:45;100105.53;;;16.73;61.33
13050;BME280;6591;51.446;5.404;2023-04-01T18:56:41;100109.19;;;16.72;61.22
13050;BME280;6591;51.446;5.404;2023-04-01T18:59:29;100131.03;;;16.68;61.24
13050;BME280;6591;51.446;5.404;2023-04-01T19:07:55;100144.69;;;16.53;60.97
13050;BME280;6591;51.446;5.404;2023-04-01T19:16:59;100171.59;;;16.41;60.71
13050;BME280;6591;51.446;5.404;2023-04-01T19:22:53;100180.38;;;16.32;61.00
13050;BME280;6591;51.446;5.404;2023-04-01T19:25:37;100183.19;;;16.30;61.19
13050;BME280;6591;51.446;5.404;2023-04-01T19:31:32;100195.84;;;16.28;60.73
13050;BME280;6591;51.446;5.404;2023-04-01T19:34:39;100206.69;;;16.27;61.07
13050;BME280;6591;51.446;5.404;2023-04-01T19:37:45;100207.06;;;16.22;60.95
13050;BME280;6591;51.446;5.404;2023-04-01T19:43:54;100212.53;;;16.21;61.18
13050;BME280;6591;51.446;5.404;2023-04-01T19:46:41;100220.56;;;16.21;61.17
13050;BME280;6591;51.446;5.404;2023-04-01T19:49:12;100225.56;;;16.25;60.85
13050;BME280;6591;51.446;5.404;2023-04-01T19:51:50;100223.00;;;16.24;60.75
13050;BME280;6591;51.446;5.404;2023-04-01T20:14:36;100288.09;;;15.91;60.45
13050;BME280;6591;51.446;5.404;2023-04-01T20:20:22;100298.16;;;15.87;60.82
13050;BME280;6591;51.446;5.404;2023-04-01T20:23:17;100314.38;;;15.86;60.50
13050;BME280;6591;51.446;5.404;2023-04-01T20:26:06;100314.47;;;15.84;60.70
13050;BME280;6591;51.446;5.404;2023-04-01T20:29:36;100316.63;;;15.79;60.70
13050;BME280;6591;51.446;5.404;2023-04-01T20:32:22;100326.25;;;15.82;60.54
13050;BME280;6591;51.446;5.404;2023-04-01T20:35:31;100337.09;;;15.80;60.53
13050;BME280;6591;51.446;5.404;2023-04-01T20:41:10;100344.47;;;15.77;60.69
13050;BME280;6591;51.446;5.404;2023-04-01T20:44:14;100343.63;;;15.76;60.44
13050;BME280;6591;51.446;5.404;2023-04-01T20:53:16;100354.41;;;15.63;60.51
13050;BME280;6591;51.446;5.404;2023-04-01T20:56:15;100380.53;;;15.60;60.50
13050;BME280;6591;51.446;5.404;2023-04-01T21:01:54;100385.34;;;15.55;60.32
13050;BME280;6591;51.446;5.404;2023-04-01T21:07:34;100395.75;;;15.47;60.21
13050;BME280;6591;51.446;5.404;2023-04-01T21:27:30;100432.84;;;15.27;60.42
13050;BME280;6591;51.446;5.404;2023-04-01T21:42:50;100480.53;;;15.08;60.36
13050;BME280;6591;51.446;5.404;2023-04-01T21:57:34;100506.63;;;14.79;60.20
13050;BME280;6591;51.446;5.404;2023-04-01T22:00:24;100505.00;;;14.77;60.34
13050;BME280;6591;51.446;5.404;2023-04-01T22:03:42;100509.81;;;14.72;60.37
13050;BME280;6591;51.446;5.404;2023-04-01T22:06:34;100520.31;;;14.75;60.47
13050;BME280;6591;51.446;5.404;2023-04-01T22:12:33;100528.41;;;14.73;60.22
13050;BME280;6591;51.446;5.404;2023-04-01T22:18:06;100539.53;;;14.67;60.05
13050;BME280;6591;51.446;5.404;2023-04-01T22:21:24;100548.81;;;14.62;60.17
13050;BME280;6591;51.446;5.404;2023-04-01T22:24:20;100549.75;;;14.61;60.20
13050;BME280;6591;51.446;5.404;2023-04-01T22:27:23;100552.66;;;14.58;60.23
13050;BME280;6591;51.446;5.404;2023-04-01T22:30:24;100566.88;;;14.58;60.33
13050;BME280;6591;51.446;5.404;2023-04-01T22:36:19;100574.25;;;14.55;60.42
13050;BME280;6591;51.446;5.404;2023-04-01T22:54:13;100602.25;;;14.21;60.28
13050;BME280;6591;51.446;5.404;2023-04-01T22:56:53;100610.16;;;14.22;60.31
13050;BME280;6591;51.446;5.404;2023-04-01T23:02:43;100616.75;;;14.17;60.02
13050;BME280;6591;51.446;5.404;2023-04-01T23:05:18;100616.66;;;14.18;60.09
13050;BME280;6591;51.446;5.404;2023-04-01T23:11:04;100634.03;;;14.11;59.85
13050;BME280;6591;51.446;5.404;2023-04-01T23:13:43;100641.16;;;14.11;59.90
13050;BME280;6591;51.446;5.404;2023-04-01T23:16:12;100637.53;;;14.12;59.54